Time;durP1;ratioP1;P1;durP2;ratioP2;P2;SDS_P1;SDS_P2;PMS_P1;PMS_P2;Temp;Humidity;BMP_temperature;BMP_pressure;BME280_temperature;BME280_humidity;BME280_pressure;Samples;Min_cycle;Max_cycle;Signal;HPM_P1;HPM_P2
2022/02/06 00:00:20;;;;;;;4.05;3.45;;;4.70;99.90;;;4.67;72.34;100542.94;5035970;28;20189;-75
2022/02/06 00:02:50;;;;;;;3.58;3.25;;;4.70;99.90;;;4.73;72.74;100541.44;5031550;28;20357;-75
2022/02/06 00:05:20;;;;;;;3.78;3.13;;;4.70;99.90;;;4.68;71.89;100539.28;5030850;28;20180;-74
2022/02/06 00:07:49;;;;;;;4.88;3.38;;;4.70;99.90;;;4.73;72.00;100538.75;5031141;28;20197;-74
2022/02/06 00:10:18;;;;;;;10.43;3.25;;;4.70;99.90;;;4.68;71.68;100528.53;5030971;28;20169;-74
2022/02/06 00:12:49;;;;;;;8.02;3.88;;;4.70;99.90;;;4.85;70.84;100533.81;5030798;28;20324;-75
2022/02/06 00:15:18;;;;;;;5.25;3.40;;;4.80;99.90;;;4.91;70.86;100533.13;5031131;28;20260;-74
2022/02/06 00:17:48;;;;;;;10.23;3.40;;;4.90;99.90;;;4.89;70.79;100527.13;5031348;28;20197;-73
2022/02/06 00:20:18;;;;;;;9.10;3.67;;;4.80;99.90;;;4.93;70.29;100517.72;5031704;28;20204;-75
2022/02/06 00:22:51;;;;;;;6.53;3.00;;;4.90;99.90;;;4.91;70.17;100511.69;5014670;28;20225;-74
2022/02/06 00:25:28;;;;;;;5.47;3.90;;;4.90;99.90;;;4.96;69.32;100498.59;5032331;28;20188;-73
2022/02/06 00:28:08;;;;;;;8.70;3.25;;;4.90;99.90;;;5.02;68.47;100500.59;5031762;28;20200;-74
2022/02/06 00:30:42;;;;;;;6.18;2.90;;;5.00;99.90;;;5.10;68.61;100503.22;5031708;28;20257;-74
2022/02/06 00:33:16;;;;;;;4.18;2.60;;;5.00;99.90;;;5.03;68.58;100484.31;5031903;28;20181;-73
2022/02/06 00:36:00;;;;;;;6.20;3.65;;;5.00;99.90;;;5.08;68.16;100478.44;5046692;28;20236;-74
2022/02/06 00:39:01;;;;;;;6.78;3.33;;;5.00;99.90;;;5.17;67.67;100474.69;5035429;28;20757;-72
2022/02/06 00:41:25;;;;;;;5.05;2.50;;;5.10;99.90;;;5.21;67.49;100473.31;5020923;28;20204;-73
2022/02/06 00:43:54;;;;;;;3.25;2.63;;;5.20;99.90;;;5.17;67.03;100466.63;5036106;28;20174;-75
2022/02/06 00:46:23;;;;;;;4.85;2.53;;;5.10;99.90;;;5.28;66.96;100470.75;5032176;28;20196;-73
2022/02/06 00:48:55;;;;;;;7.75;3.17;;;5.20;99.90;;;5.36;66.61;100466.16;5014070;28;20291;-73
2022/02/06 00:51:31;;;;;;;4.45;2.63;;;5.30;99.90;;;5.40;66.70;100448.69;5031231;28;20188;-74
2022/02/06 00:54:01;;;;;;;3.95;3.15;;;5.30;99.90;;;5.42;66.55;100443.16;5034438;28;20182;-76
2022/02/06 00:56:30;;;;;;;3.25;2.15;;;5.40;99.90;;;5.46;66.28;100442.63;5037377;28;20200;-75
2022/02/06 00:58:58;;;;;;;7.53;3.00;;;5.40;99.90;;;5.45;65.37;100424.84;5031052;28;20241;-73
2022/02/06 01:01:29;;;;;;;7.72;4.57;;;5.40;1.00;;;5.48;65.55;100429.84;5035532;28;20196;-75
2022/02/06 01:03:57;;;;;;;5.88;3.13;;;5.40;1.00;;;5.43;65.20;100426.00;5030734;28;20792;-75
2022/02/06 01:06:26;;;;;;;5.95;2.92;;;5.40;1.00;;;5.42;65.33;100422.50;5033490;28;20189;-73
2022/02/06 01:08:54;;;;;;;4.63;2.10;;;5.40;99.90;;;5.48;65.50;100419.09;5030771;28;20397;-73
2022/02/06 01:11:24;;;;;;;7.13;2.47;;;5.40;99.90;;;5.55;65.21;100414.69;5033427;28;20202;-73
2022/02/06 01:14:05;;;;;;;3.00;2.42;;;5.50;99.90;;;5.57;64.74;100401.91;5034156;28;20185;-73
2022/02/06 01:16:38;;;;;;;3.50;2.15;;;5.50;1.00;;;5.61;64.48;100391.66;5016031;28;20197;-74
2022/02/06 01:19:10;;;;;;;3.80;1.92;;;5.50;1.00;;;5.66;64.54;100392.75;5033840;28;20218;-73
2022/02/06 01:21:48;;;;;;;5.97;2.58;;;5.60;1.00;;;5.70;64.44;100390.56;5034074;28;20208;-75
2022/02/06 01:24:19;;;;;;;9.25;1.85;;;5.70;99.90;;;5.75;64.29;100380.09;5034041;28;20178;-73
2022/02/06 01:26:53;;;;;;;5.65;2.22;;;5.60;99.90;;;5.76;64.15;100372.88;5033666;28;20536;-74
2022/02/06 01:29:33;;;;;;;5.75;2.38;;;5.70;50.70;;;5.77;63.90;100374.53;5034374;28;20210;-74
2022/02/06 01:32:05;;;;;;;5.22;2.10;;;5.70;99.90;;;5.79;63.90;100362.59;5014686;28;20494;-74
2022/02/06 01:34:42;;;;;;;4.13;2.33;;;5.70;99.90;;;5.88;63.39;100355.31;5031360;28;20196;-72
2022/02/06 01:37:21;;;;;;;2.78;2.13;;;5.80;99.90;;;5.88;63.54;100355.31;5033541;28;20185;-74
2022/02/06 01:40:08;;;;;;;4.75;3.58;;;5.80;1.00;;;5.90;63.64;100358.66;5033834;28;20553;-72
2022/02/06 01:42:42;;;;;;;3.25;2.03;;;5.90;1.00;;;5.92;63.64;100352.06;5033891;28;20182;-74
2022/02/06 01:45:30;;;;;;;2.63;2.00;;;5.90;1.00;;;5.91;64.05;100350.41;5033606;28;20192;-74
2022/02/06 02:05:03;;;;;;;2.20;2.00;;;5.80;99.90;;;5.83;64.81;100312.03;4992313;28;20548;-74
2022/02/06 02:13:27;;;;;;;4.43;1.98;;;5.80;99.90;;;5.79;65.46;100286.59;5033603;28;20194;-73
2022/02/06 02:27:14;;;;;;;4.53;2.53;;;5.60;99.90;;;5.66;67.85;100260.41;5024932;28;20209;-74
2022/02/06 02:30:19;;;;;;;7.72;2.42;;;5.60;99.90;;;5.63;67.93;100250.88;5033169;28;20217;-74
2022/02/06 02:33:13;;;;;;;4.32;1.90;;;5.60;99.90;;;5.52;68.40;100243.28;5034899;28;20198;-74
2022/02/06 02:47:14;;;;;;;3.38;2.15;;;5.30;99.90;;;5.29;71.35;100225.59;5033211;28;20177;-72
2022/02/06 02:49:50;;;;;;;3.45;1.65;;;5.30;99.90;;;5.23;71.49;100219.09;5033644;28;20208;-73
2022/02/06 02:52:36;;;;;;;3.47;2.08;;;5.20;99.90;;;5.19;71.89;100215.13;5035506;28;20181;-73
2022/02/06 02:55:20;;;;;;;3.78;2.20;;;5.20;99.90;;;5.17;72.35;100206.47;5036039;28;20228;-71
2022/02/06 02:57:53;;;;;;;5.47;1.80;;;5.20;99.90;;;5.09;72.61;100190.44;5034577;28;20186;-71
2022/02/06 03:00:51;;;;;;;4.97;2.08;;;5.10;99.90;;;5.15;72.86;100200.44;5034723;28;20344;-74
2022/02/06 03:03:23;;;;;;;7.75;2.30;;;5.10;99.90;;;5.12;73.18;100195.44;5032300;28;20555;-74
2022/02/06 03:05:54;;;;;;;7.60;3.78;;;5.10;99.90;;;5.03;73.30;100188.50;5032266;28;20192;-73
2022/02/06 03:08:23;;;;;;;4.15;2.10;;;5.10;99.90;;;5.01;73.69;100195.88;5014206;28;20275;-73
2022/02/06 03:10:56;;;;;;;11.82;3.35;;;5.00;99.90;;;5.00;73.98;100183.50;5032264;28;20216;-71
2022/02/06 03:13:33;;;;;;;4.60;2.08;;;5.00;99.90;;;4.94;74.27;100176.19;5032247;28;20174;-73
2022/02/06 03:16:14;;;;;;;3.55;2.15;;;4.90;99.90;;;4.93;74.58;100169.16;5032959;28;20180;-72
2022/02/06 03:18:49;;;;;;;5.10;2.33;;;4.90;99.90;;;4.92;74.28;100165.66;5034742;28;20703;-72
2022/02/06 03:21:20;;;;;;;7.75;2.10;;;4.90;99.90;;;4.85;74.86;100150.47;5036127;28;20174;-74
2022/02/06 03:23:52;;;;;;;7.40;2.42;;;4.90;1.00;;;4.79;75.02;100144.00;5031975;28;20174;-72
2022/02/06 03:26:24;;;;;;;7.22;1.90;;;4.80;1.00;;;4.76;75.52;100134.47;5032135;28;20188;-73
2022/02/06 03:28:54;;;;;;;5.57;2.30;;;4.80;1.00;;;4.77;75.36;100125.44;5013718;28;20239;-73
2022/02/06 03:31:23;;;;;;;4.93;2.63;;;4.70;99.90;;;4.81;75.36;100124.03;5032263;28;20678;-73
2022/02/06 03:33:52;;;;;;;4.30;2.30;;;4.80;1.00;;;4.86;75.57;100128.00;5035561;28;20247;-73
2022/02/06 03:36:22;;;;;;;3.85;2.25;;;4.80;1.00;;;4.87;75.56;100119.78;5051240;28;20737;-73
2022/02/06 03:38:52;;;;;;;7.30;2.63;;;4.90;1.00;;;4.91;75.59;100114.88;5051100;28;20212;-73
2022/02/06 03:41:25;;;;;;;6.80;2.70;;;4.80;1.00;;;4.82;75.74;100111.47;5051635;28;20177;-72
2022/02/06 03:44:00;;;;;;;3.75;2.30;;;4.80;1.00;;;4.79;75.80;100109.16;5051696;28;20177;-74
2022/02/06 03:46:32;;;;;;;5.45;2.45;;;4.80;99.90;;;4.76;75.86;100096.94;5051822;28;20484;-74
2022/02/06 03:49:11;;;;;;;7.35;3.20;;;4.80;99.90;;;4.80;76.17;100097.41;5053017;28;20238;-73
2022/02/06 03:51:40;;;;;;;6.30;2.72;;;4.80;99.90;;;4.79;75.85;100079.69;5063126;28;20169;-72
2022/02/06 03:54:11;;;;;;;4.25;2.95;;;4.80;99.90;;;4.79;75.88;100075.13;5063062;28;20211;-72
2022/02/06 03:56:41;;;;;;;5.00;2.60;;;4.80;99.90;;;4.81;76.27;100078.47;5056068;28;20180;-72
2022/02/06 03:59:09;;;;;;;3.53;2.20;;;4.80;99.90;;;4.78;76.06;100078.84;5050498;28;20349;-72
2022/02/06 04:01:38;;;;;;;4.53;2.05;;;4.80;99.90;;;4.73;75.76;100085.78;5050643;28;20181;-74
2022/02/06 04:04:06;;;;;;;4.35;2.40;;;4.70;99.90;;;4.67;76.28;100073.94;5050518;28;20208;-73
2022/02/06 04:06:34;;;;;;;5.55;2.17;;;4.70;99.90;;;4.72;75.96;100063.50;5050509;28;20192;-73
2022/02/06 04:09:08;;;;;;;5.43;2.75;;;4.70;99.90;;;4.82;76.29;100079.31;5032181;28;20212;-73
2022/02/06 04:11:47;;;;;;;5.72;2.88;;;4.80;99.90;;;4.82;76.09;100068.59;5050492;28;20196;-74
2022/02/06 04:14:27;;;;;;;5.43;2.72;;;4.80;99.90;;;4.79;76.35;100059.03;5035052;28;20188;-73
2022/02/06 04:17:00;;;;;;;3.83;2.30;;;4.80;99.90;;;4.85;76.50;100059.31;5052004;28;20169;-73
2022/02/06 04:19:29;;;;;;;6.22;3.05;;;4.80;99.90;;;4.86;76.19;100061.00;5052419;28;20670;-72
2022/02/06 04:21:59;;;;;;;4.05;2.42;;;4.80;99.90;;;4.87;76.02;100046.59;5052688;28;20260;-74
2022/02/06 04:24:27;;;;;;;12.60;3.10;;;4.80;99.90;;;4.86;76.21;100043.06;5051467;28;20667;-75
2022/02/06 04:26:56;;;;;;;9.88;2.85;;;4.80;99.90;;;4.86;76.10;100043.06;5051672;28;20188;-73
2022/02/06 04:29:25;;;;;;;5.93;3.05;;;4.80;99.90;;;4.79;76.66;100034.91;5051676;28;20208;-73
2022/02/06 04:31:54;;;;;;;4.13;2.40;;;4.80;99.90;;;4.88;76.36;100018.75;5051123;28;20235;-73
2022/02/06 04:34:24;;;;;;;8.50;3.17;;;4.80;99.90;;;4.90;76.35;100008.66;5051267;28;20242;-73
2022/02/06 04:37:00;;;;;;;7.57;4.35;;;4.90;99.90;;;4.89;76.13;100001.66;5051274;28;20314;-74
2022/02/06 04:39:54;;;;;;;6.15;3.10;;;4.90;99.90;;;4.87;76.20;100001.00;5051785;28;20212;-72
2022/02/06 04:42:34;;;;;;;6.18;3.83;;;4.80;99.90;;;4.91;76.05;100002.28;5051648;28;20231;-72
2022/02/06 05:19:14;;;;;;;5.13;2.60;;;5.00;99.90;;;5.04;76.86;99938.09;5050872;28;20803;-73
2022/02/06 05:24:52;;;;;;;7.35;3.80;;;5.10;99.90;;;5.03;77.55;99921.19;5054871;28;20670;-73
2022/02/06 05:27:47;;;;;;;6.03;2.40;;;5.00;99.90;;;5.08;77.22;99924.13;5055856;28;20173;-73
2022/02/06 05:30:19;;;;;;;4.60;2.60;;;5.00;99.90;;;5.05;76.96;99929.88;5054434;28;20193;-72
2022/02/06 05:32:58;;;;;;;4.20;2.45;;;5.10;99.90;;;5.04;77.42;99916.66;5054962;28;20181;-73
2022/02/06 05:35:28;;;;;;;3.28;2.80;;;5.00;99.90;;;5.13;77.17;99916.31;5053471;28;20205;-73
2022/02/06 05:37:56;;;;;;;4.95;2.42;;;5.10;99.90;;;5.10;77.00;99927.44;5055313;28;20659;-74
2022/02/06 05:40:25;;;;;;;9.77;2.95;;;5.10;99.90;;;5.09;77.66;99916.91;5061498;28;20184;-75
2022/02/06 05:42:53;;;;;;;3.47;3.00;;;5.00;99.90;;;5.08;77.69;99908.03;5063040;28;20181;-73
2022/02/06 05:45:21;;;;;;;8.75;3.10;;;5.10;99.90;;;5.04;77.87;99906.75;5057478;28;20177;-73
2022/02/06 05:47:51;;;;;;;3.38;2.90;;;5.00;99.90;;;5.00;78.15;99904.63;5053913;28;20185;-72
2022/02/06 05:50:23;;;;;;;4.90;2.55;;;5.00;99.90;;;5.04;78.29;99887.97;5054754;28;20181;-75
2022/02/06 05:52:53;;;;;;;6.65;3.42;;;5.00;99.90;;;5.04;77.93;99895.19;5056242;28;20177;-72
2022/02/06 05:55:23;;;;;;;5.07;2.80;;;5.00;99.90;;;5.15;78.61;99887.47;5059891;28;20180;-74
2022/02/06 05:57:51;;;;;;;4.30;2.78;;;5.00;99.90;;;5.12;78.30;99887.03;5061761;28;20619;-73
2022/02/06 06:00:20;;;;;;;5.47;3.17;;;5.10;99.90;;;5.18;77.95;99888.97;5062900;28;20219;-74
2022/02/06 06:02:48;;;;;;;5.80;3.50;;;5.10;99.90;;;5.14;78.03;99887.66;5058697;28;20227;-73
2022/02/06 06:05:16;;;;;;;5.68;2.95;;;5.10;99.90;;;5.19;78.25;99882.56;5055007;28;20197;-72
2022/02/06 06:07:45;;;;;;;4.05;2.65;;;5.20;99.90;;;5.11;78.03;99874.66;5054756;28;20177;-74
2022/02/06 06:10:15;;;;;;;8.48;2.97;;;5.10;99.90;;;5.13;78.34;99877.97;5055524;28;20185;-74
2022/02/06 06:12:43;;;;;;;8.20;2.95;;;5.10;99.90;;;5.02;78.73;99886.53;5055890;28;20181;-72
2022/02/06 06:15:11;;;;;;;5.88;2.58;;;5.00;99.90;;;5.08;78.65;99875.03;5036495;28;20197;-72
2022/02/06 06:17:40;;;;;;;5.57;2.58;;;5.00;99.90;;;5.03;79.01;99870.25;5053825;28;20196;-75
2022/02/06 06:20:14;;;;;;;5.15;2.88;;;5.00;99.90;;;5.08;79.15;99869.69;5037459;28;20197;-73
2022/02/06 06:22:43;;;;;;;5.45;2.55;;;5.00;99.90;;;5.11;79.09;99867.44;5056539;28;20199;-72
2022/02/06 06:25:12;;;;;;;3.47;2.45;;;5.00;99.90;;;5.09;79.11;99865.94;5056856;28;20177;-72
2022/02/06 06:27:41;;;;;;;5.32;2.80;;;5.10;99.90;;;5.05;79.37;99859.31;5057478;28;20177;-73
2022/02/06 06:30:11;;;;;;;3.58;2.60;;;5.00;99.90;;;5.11;79.00;99862.06;5057518;28;20561;-72
2022/02/06 06:32:40;;;;;;;8.70;3.20;;;5.10;99.90;;;5.11;79.29;99859.41;5057681;28;20204;-72
2022/02/06 06:35:09;;;;;;;6.63;3.70;;;5.10;99.90;;;5.06;79.25;99852.94;5058072;28;20205;-74
2022/02/06 06:37:57;;;;;;;5.15;2.33;;;5.10;99.90;;;5.08;79.60;99850.91;5056441;28;20287;-73
2022/02/06 06:40:26;;;;;;;3.08;2.30;;;5.00;99.90;;;5.09;79.59;99831.94;5055385;28;20612;-73
2022/02/06 06:42:56;;;;;;;5.65;2.42;;;5.10;99.90;;;5.11;79.16;99831.75;5043248;28;20682;-72
2022/02/06 06:45:25;;;;;;;7.10;3.17;;;5.10;99.90;;;5.07;79.44;99830.47;5032274;28;20182;-73
2022/02/06 06:47:55;;;;;;;3.50;2.40;;;5.10;99.90;;;5.15;79.66;99835.69;5033914;28;20601;-73
2022/02/06 06:50:31;;;;;;;6.03;2.90;;;5.10;99.90;;;5.12;79.32;99828.03;5034362;28;20212;-73
2022/02/06 06:53:01;;;;;;;3.47;2.00;;;5.10;99.90;;;5.17;79.31;99828.31;5034053;28;20800;-73
2022/02/06 06:55:31;;;;;;;4.35;2.20;;;5.10;99.90;;;5.16;79.40;99840.03;5017147;28;20189;-73
2022/02/06 06:58:09;;;;;;;5.70;3.17;;;5.10;99.90;;;5.21;79.66;99829.56;5034314;28;20269;-71
2022/02/06 07:00:43;;;;;;;6.20;2.53;;;5.20;99.90;;;5.16;79.48;99821.28;5037308;28;20251;-73
2022/02/06 07:03:11;;;;;;;6.00;2.10;;;5.10;99.90;;;5.15;79.31;99822.28;5036870;28;20662;-74
2022/02/06 07:05:40;;;;;;;5.32;3.15;;;5.10;99.90;;;5.22;79.77;99812.47;5035503;28;20269;-73
2022/02/06 07:08:08;;;;;;;6.15;2.15;;;5.20;99.90;;;5.28;79.33;99817.03;5034480;28;20252;-72
2022/02/06 07:10:37;;;;;;;3.03;2.10;;;5.20;99.90;;;5.21;79.50;99817.00;5032892;28;20193;-72
2022/02/06 07:13:06;;;;;;;3.85;2.40;;;5.20;99.90;;;5.32;79.54;99812.13;5033478;28;20213;-72
2022/02/06 07:15:35;;;;;;;2.17;1.80;;;5.20;99.90;;;5.33;79.62;99809.22;5033791;28;20232;-74
2022/02/06 07:18:04;;;;;;;3.00;2.50;;;5.30;99.90;;;5.34;79.62;99807.38;5033422;28;20214;-75
2022/02/06 07:20:34;;;;;;;3.53;2.20;;;5.30;99.90;;;5.33;79.20;99811.91;5034642;28;20194;-73
2022/02/06 07:23:05;;;;;;;6.05;2.50;;;5.30;99.90;;;5.38;79.05;99804.09;5034208;28;20182;-73
2022/02/06 07:25:35;;;;;;;7.47;2.55;;;5.30;99.90;;;5.46;79.39;99798.63;5033636;28;20641;-74
2022/02/06 07:28:07;;;;;;;2.67;2.10;;;5.40;99.90;;;5.38;79.25;99806.78;5033194;28;20225;-72
2022/02/06 07:30:35;;;;;;;7.15;2.15;;;5.30;99.90;;;5.43;79.23;99804.34;5031337;28;20182;-72
2022/02/06 07:33:04;;;;;;;7.00;3.30;;;5.40;99.90;;;5.44;79.16;99789.09;5045794;28;20299;-74
2022/02/06 07:35:33;;;;;;;4.30;1.85;;;5.40;99.90;;;5.54;79.25;99795.78;5034849;28;20201;-73
2022/02/06 07:38:01;;;;;;;5.90;2.53;;;5.50;99.90;;;5.52;79.20;99786.25;5032472;28;20555;-73
2022/02/06 07:40:30;;;;;;;7.70;2.47;;;5.50;99.90;;;5.59;78.98;99787.97;5014652;28;20224;-73
2022/02/06 07:42:58;;;;;;;5.00;2.58;;;5.50;99.90;;;5.61;79.04;99783.25;5032871;28;20656;-75
2022/02/06 07:45:35;;;;;;;4.00;2.00;;;5.50;99.90;;;5.59;78.36;99771.84;5031572;28;20193;-72
2022/02/06 07:48:07;;;;;;;4.95;2.13;;;5.50;99.90;;;5.62;78.60;99773.31;5031709;28;20311;-73
2022/02/06 07:50:35;;;;;;;4.72;2.05;;;5.60;99.90;;;5.70;78.37;99762.44;5014472;28;20599;-73
2022/02/06 07:53:04;;;;;;;2.10;1.83;;;5.60;99.90;;;5.80;78.13;99767.44;5031903;28;20248;-72
2022/02/06 07:55:32;;;;;;;2.90;2.25;;;5.70;99.90;;;5.74;78.59;99766.38;5032190;28;20190;-75
2022/02/06 07:58:01;;;;;;;2.80;1.98;;;5.60;99.90;;;5.79;78.13;99758.56;5014243;28;20220;-72
2022/02/06 08:00:29;;;;;;;3.03;2.15;;;5.70;99.90;;;5.81;78.49;99758.38;5032129;28;20173;-73
2022/02/06 08:02:59;;;;;;;3.72;2.03;;;5.70;99.90;;;5.84;78.39;99748.03;5032259;28;20198;-72
2022/02/06 08:05:29;;;;;;;2.20;1.70;;;5.70;99.90;;;5.82;77.98;99749.25;5032486;28;20166;-71
2022/02/06 08:07:58;;;;;;;4.78;2.05;;;5.80;99.90;;;5.83;77.86;99740.19;5032022;28;20228;-74
2022/02/06 08:10:28;;;;;;;3.60;1.95;;;5.80;99.90;;;5.83;78.10;99745.56;5019394;28;20664;-72
2022/02/06 08:13:06;;;;;;;3.65;2.03;;;5.80;99.90;;;5.86;77.78;99745.13;5031847;28;20201;-73
2022/02/06 08:15:37;;;;;;;3.10;2.17;;;5.80;99.90;;;5.86;77.97;99734.41;5031735;28;20212;-74
2022/02/06 08:18:07;;;;;;;7.80;2.92;;;5.80;99.90;;;5.95;77.83;99747.53;5031826;28;20205;-74
2022/02/06 08:20:38;;;;;;;3.20;2.30;;;5.90;99.90;;;5.89;77.92;99734.88;5032920;28;20170;-74
2022/02/06 08:23:07;;;;;;;6.65;2.50;;;5.90;99.90;;;5.87;78.23;99725.34;5032541;28;20174;-72
2022/02/06 08:25:35;;;;;;;2.13;1.65;;;5.80;99.90;;;5.92;78.22;99723.72;5031561;28;20326;-73
2022/02/06 08:28:04;;;;;;;4.55;2.00;;;5.80;99.90;;;5.96;77.84;99729.53;5031247;28;20703;-73
2022/02/06 08:30:33;;;;;;;2.65;1.60;;;5.90;99.90;;;6.00;77.23;99720.88;5033261;28;20185;-72
2022/02/06 08:33:01;;;;;;;3.83;2.10;;;5.90;99.90;;;6.09;76.81;99718.84;5032712;28;20233;-72
2022/02/06 08:35:31;;;;;;;5.60;2.15;;;6.00;99.90;;;6.22;76.69;99713.50;5014080;28;20209;-74
2022/02/06 08:38:00;;;;;;;4.88;2.00;;;6.10;99.90;;;6.14;76.84;99713.72;5014533;28;20466;-72
2022/02/06 08:40:28;;;;;;;1.95;1.17;;;6.10;99.90;;;6.22;76.79;99707.31;5013756;28;20667;-73
2022/02/06 08:42:56;;;;;;;2.95;1.40;;;6.10;99.90;;;6.27;77.05;99707.53;5015204;28;20193;-75
2022/02/06 08:45:28;;;;;;;5.22;1.40;;;6.10;99.90;;;6.28;76.75;99707.34;5014764;28;20185;-73
2022/02/06 08:47:57;;;;;;;2.30;1.70;;;6.10;99.90;;;6.30;77.00;99704.41;5032705;28;20169;-74
2022/02/06 08:50:26;;;;;;;2.50;1.40;;;6.20;99.90;;;6.31;76.68;99700.72;5031626;28;20224;-73
2022/02/06 08:52:59;;;;;;;2.35;1.90;;;6.20;99.90;;;6.42;76.42;99697.44;5031309;28;20252;-74
2022/02/06 08:55:29;;;;;;;1.90;1.60;;;6.30;99.90;;;6.43;76.47;99693.72;5031794;28;20169;-72
2022/02/06 08:57:58;;;;;;;3.17;2.00;;;6.30;99.90;;;6.48;75.60;99692.09;5031601;28;20178;-73
2022/02/06 09:00:27;;;;;;;6.72;2.00;;;6.40;99.90;;;6.51;76.12;99686.28;5032563;28;20233;-73
2022/02/06 09:02:55;;;;;;;2.13;1.40;;;6.40;99.90;;;6.55;75.70;99678.63;5033287;28;20173;-74
2022/02/06 09:05:25;;;;;;;2.40;1.45;;;6.40;99.90;;;6.61;76.06;99693.13;5033238;28;20583;-72
2022/02/06 09:07:55;;;;;;;1.73;1.27;;;6.40;99.90;;;6.47;75.99;99678.84;5025784;28;20188;-74
2022/02/06 09:10:24;;;;;;;3.95;1.40;;;6.40;99.90;;;6.47;76.24;99676.16;5034146;28;20182;-74
2022/02/06 09:12:54;;;;;;;3.20;1.58;;;6.40;99.90;;;6.51;76.41;99680.91;5014385;28;20217;-73
2022/02/06 09:15:24;;;;;;;2.78;1.20;;;6.40;99.90;;;6.55;76.38;99671.41;5032643;28;20177;-73
2022/02/06 09:17:53;;;;;;;4.40;1.70;;;6.50;99.90;;;6.43;76.49;99662.31;5033143;28;20266;-74
2022/02/06 09:20:22;;;;;;;3.38;1.42;;;6.40;99.90;;;6.52;76.24;99671.00;5033147;28;20208;-73
2022/02/06 09:22:51;;;;;;;3.15;1.80;;;6.40;99.90;;;6.66;75.91;99663.75;5032787;28;20750;-73
2022/02/06 09:25:21;;;;;;;2.17;1.35;;;6.50;99.90;;;6.77;76.16;99673.91;5014294;28;20184;-73
2022/02/06 09:27:49;;;;;;;2.17;1.40;;;6.60;99.90;;;6.79;75.89;99656.50;5031868;28;20190;-73
2022/02/06 09:30:25;;;;;;;2.67;1.58;;;6.70;99.90;;;6.73;75.33;99659.22;5033600;28;20236;-74
2022/02/06 09:35:22;;;;;;;2.38;1.80;;;6.70;99.90;;;6.88;75.63;99655.25;5037442;28;20201;-73
2022/02/06 09:37:52;;;;;;;6.30;1.52;;;6.70;99.90;;;6.84;75.86;99648.66;5037620;28;20261;-74
2022/02/06 09:40:27;;;;;;;6.60;2.30;;;6.70;99.90;;;6.95;75.50;99655.28;5036405;28;20235;-73
2022/02/06 09:42:59;;;;;;;3.95;1.30;;;6.80;99.90;;;6.93;75.50;99636.63;5041594;28;20184;-74
2022/02/06 09:45:28;;;;;;;2.38;1.55;;;6.80;99.90;;;6.92;75.60;99626.91;5038888;28;20194;-73
2022/02/06 09:48:00;;;;;;;4.20;1.40;;;6.80;99.90;;;7.02;75.09;99629.16;5047810;28;20612;-74
2022/02/06 09:50:30;;;;;;;2.17;1.58;;;6.90;99.90;;;6.97;75.75;99634.38;5026220;28;20265;-73
2022/02/06 09:53:00;;;;;;;3.03;1.67;;;6.90;99.90;;;6.94;75.51;99621.34;5034776;28;20209;-75
2022/02/06 09:55:30;;;;;;;3.15;1.80;;;6.80;99.90;;;7.09;75.63;99618.41;5050525;28;20643;-75
2022/02/06 09:58:13;;;;;;;3.08;1.50;;;6.90;99.90;;;7.16;75.01;99613.84;5054339;28;20180;-73
2022/02/06 10:00:44;;;;;;;4.35;1.52;;;7.00;99.90;;;7.20;75.38;99605.16;5054940;28;20173;-75
2022/02/06 10:03:15;;;;;;;3.22;1.77;;;7.10;99.90;;;7.19;74.95;99614.25;5054299;28;20615;-74
2022/02/06 10:05:46;;;;;;;3.70;1.40;;;7.00;99.90;;;7.22;74.56;99603.06;5052441;28;20223;-74
2022/02/06 10:08:27;;;;;;;2.40;1.23;;;7.10;99.90;;;7.31;75.06;99601.78;5045014;28;20212;-74
2022/02/06 10:11:04;;;;;;;2.30;1.55;;;7.10;99.90;;;7.41;74.49;99588.69;5039701;28;20205;-73
2022/02/06 10:13:36;;;;;;;1.92;1.60;;;7.20;99.90;;;7.39;74.19;99592.66;5032088;28;20189;-74
2022/02/06 10:16:05;;;;;;;3.50;2.05;;;7.30;99.90;;;7.37;73.91;99583.97;5032619;28;20190;-73
2022/02/06 10:18:35;;;;;;;2.28;1.70;;;7.20;99.90;;;7.47;74.00;99575.44;5013608;28;20256;-73
2022/02/06 10:21:05;;;;;;;2.03;1.38;;;7.30;99.90;;;7.65;73.22;99575.56;5030637;28;20220;-74
2022/02/06 10:23:39;;;;;;;1.90;1.70;;;7.50;99.90;;;7.79;72.06;99566.38;5029579;28;20190;-72
2022/02/06 10:26:24;;;;;;;6.78;1.90;;;7.60;99.90;;;7.94;72.22;99563.38;5033618;28;20200;-74
2022/02/06 10:29:22;;;;;;;3.58;1.60;;;7.70;99.90;;;7.77;72.05;99555.81;5033846;28;20221;-73
2022/02/06 10:31:59;;;;;;;4.25;1.38;;;7.70;99.90;;;7.93;72.09;99551.78;5052312;28;20210;-74
2022/02/06 10:34:31;;;;;;;3.83;1.83;;;7.80;99.90;;;8.04;71.20;99537.59;5052376;28;20667;-74
2022/02/06 10:37:12;;;;;;;3.35;1.60;;;7.90;99.90;;;7.89;71.57;99531.69;5036247;28;20240;-74
2022/02/06 10:40:00;;;;;;;3.90;2.00;;;7.80;99.90;;;7.86;71.79;99524.88;5036106;28;20630;-75
2022/02/06 10:42:36;;;;;;;3.92;2.00;;;7.80;99.90;;;7.75;71.58;99509.41;5034480;28;20237;-74
2022/02/06 10:45:26;;;;;;;2.55;1.65;;;7.60;99.90;;;7.71;72.27;99500.13;5015999;28;20224;-75
2022/02/06 10:47:57;;;;;;;4.35;1.50;;;7.60;99.90;;;7.90;71.53;99487.56;5027258;28;20616;-73
2022/02/06 10:50:29;;;;;;;4.07;1.92;;;7.70;99.90;;;7.95;71.92;99494.97;5031946;28;20200;-74
2022/02/06 10:53:08;;;;;;;2.30;1.30;;;7.70;99.90;;;7.96;71.25;99481.31;5034723;28;20587;-75
2022/02/06 10:55:53;;;;;;;5.97;1.90;;;7.80;99.90;;;8.12;70.94;99488.84;5034150;28;20264;-74
2022/02/06 10:58:28;;;;;;;2.28;2.00;;;7.90;99.90;;;8.17;70.50;99474.72;5035773;28;20213;-76
2022/02/06 11:00:57;;;;;;;2.15;1.70;;;8.00;99.90;;;8.14;70.07;99478.66;5016407;28;20201;-74
2022/02/06 11:03:32;;;;;;;2.60;2.13;;;8.00;99.90;;;8.19;70.33;99457.25;5031458;28;20197;-75
2022/02/06 11:06:10;;;;;;;2.25;1.17;;;8.00;99.90;;;8.24;69.92;99457.44;5031414;28;20301;-75
2022/02/06 11:08:39;;;;;;;2.80;1.60;;;8.10;99.90;;;8.15;69.92;99453.38;5031550;28;20632;-75
2022/02/06 11:11:11;;;;;;;2.20;1.67;;;8.10;99.90;;;8.08;69.72;99439.16;5031208;28;20193;-74
2022/02/06 11:13:41;;;;;;;3.05;1.33;;;8.00;99.90;;;8.16;69.56;99444.25;5013703;28;20570;-74
2022/02/06 11:16:18;;;;;;;2.35;1.33;;;8.00;99.90;;;8.22;69.47;99431.75;5031560;28;20174;-74
2022/02/06 11:18:51;;;;;;;3.20;1.90;;;8.10;99.90;;;8.21;69.07;99419.31;5029628;28;20216;-74
2022/02/06 11:21:21;;;;;;;5.05;1.67;;;8.10;99.90;;;8.18;69.28;99423.28;5031495;28;20185;-73
2022/02/06 11:23:52;;;;;;;4.60;1.50;;;8.10;99.90;;;8.15;69.22;99421.03;5031154;28;20204;-75
2022/02/06 11:26:26;;;;;;;2.42;1.23;;;8.10;99.90;;;8.15;69.05;99410.25;5031740;28;20173;-76
2022/02/06 11:28:58;;;;;;;2.00;1.30;;;8.10;99.90;;;8.20;68.71;99412.28;5030554;28;20209;-73
2022/02/06 11:31:28;;;;;;;2.40;1.20;;;8.10;99.90;;;8.21;69.13;99401.28;5031722;28;20588;-76
2022/02/06 11:33:58;;;;;;;2.00;1.42;;;8.10;99.90;;;8.19;69.11;99381.81;5030648;28;20809;-73
2022/02/06 11:45:33;;;;;;;2.40;1.58;;;8.10;99.90;;;8.25;68.27;99356.69;5031434;28;20656;-75
2022/02/06 11:48:06;;;;;;;2.03;1.25;;;8.20;99.90;;;8.33;68.14;99349.38;5030333;28;20193;-75
2022/02/06 11:50:37;;;;;;;4.10;1.48;;;8.20;99.90;;;8.26;67.51;99342.16;5030040;28;20185;-75
2022/02/06 11:53:09;;;;;;;1.77;1.42;;;8.20;99.90;;;8.19;67.70;99344.09;5030971;28;20189;-75
2022/02/06 11:55:42;;;;;;;4.15;1.67;;;8.20;99.90;;;8.32;68.06;99339.66;5024516;28;20824;-75
2022/02/06 11:58:29;;;;;;;1.67;1.52;;;8.20;99.90;;;8.33;67.67;99330.53;5049851;28;20564;-75
2022/02/06 12:01:26;;;;;;;3.72;1.83;;;8.20;99.90;;;8.29;67.47;99314.78;5049378;28;20184;-74
2022/02/06 12:04:05;;;;;;;2.97;1.25;;;8.20;99.90;;;8.43;67.91;99309.22;5050158;28;20180;-75
2022/02/06 12:06:57;;;;;;;2.70;1.10;;;8.30;99.90;;;8.28;68.45;99294.25;5032977;28;20197;-75
2022/02/06 12:09:29;;;;;;;2.72;1.20;;;8.20;99.90;;;8.24;68.94;99290.34;5052706;28;20205;-74
2022/02/06 12:12:23;;;;;;;2.65;1.20;;;8.10;99.90;;;8.16;70.07;99297.94;5051252;28;20890;-73
2022/02/06 12:15:26;;;;;;;3.00;1.60;;;8.10;99.90;;;8.23;70.88;99283.31;5033842;28;20228;-75
2022/02/06 12:18:10;;;;;;;3.15;1.60;;;8.10;99.90;;;8.14;70.75;99294.63;5040514;28;20305;-74
2022/02/06 12:20:50;;;;;;;3.08;1.70;;;8.10;99.90;;;8.14;71.09;99281.16;5049297;28;20177;-74
2022/02/06 12:23:40;;;;;;;2.00;1.23;;;8.10;99.90;;;8.12;71.63;99259.84;5049343;28;20267;-74
2022/02/06 12:26:45;;;;;;;3.20;1.45;;;8.00;99.90;;;8.15;71.18;99240.53;5051228;28;20235;-75
2022/02/06 12:29:20;;;;;;;2.75;1.42;;;8.10;99.90;;;8.02;71.47;99248.78;5050927;28;20220;-74